sensor_id;sensor_type;location;lat;lon;timestamp;P1;durP1;ratioP1;P2;durP2;ratioP2
38787;SDS011;24536;45.488;12.238;2022-08-19T00:01:55;8.55;;;2.30;;
38787;SDS011;24536;45.488;12.238;2022-08-19T00:04:23;6.07;;;1.60;;
38787;SDS011;24536;45.488;12.238;2022-08-19T00:06:51;5.33;;;2.00;;
38787;SDS011;24536;45.488;12.238;2022-08-19T00:09:18;4.25;;;1.83;;
38787;SDS011;24536;45.488;12.238;2022-08-19T00:11:45;6.85;;;1.95;;
38787;SDS011;24536;45.488;12.238;2022-08-19T00:14:12;4.30;;;2.13;;
38787;SDS011;24536;45.488;12.238;2022-08-19T00:16:41;5.45;;;2.08;;
38787;SDS011;24536;45.488;12.238;2022-08-19T00:19:09;7.00;;;2.08;;
38787;SDS011;24536;45.488;12.238;2022-08-19T00:21:35;7.78;;;2.15;;
38787;SDS011;24536;45.488;12.238;2022-08-19T00:24:04;8.95;;;2.17;;
38787;SDS011;24536;45.488;12.238;2022-08-19T00:26:31;6.38;;;1.88;;
38787;SDS011;24536;45.488;12.238;2022-08-19T00:28:57;6.20;;;1.85;;
38787;SDS011;24536;45.488;12.238;2022-08-19T00:31:22;6.57;;;1.65;;
38787;SDS011;24536;45.488;12.238;2022-08-19T00:33:50;7.03;;;2.20;;
38787;SDS011;24536;45.488;12.238;2022-08-19T00:36:15;2.83;;;1.35;;
38787;SDS011;24536;45.488;12.238;2022-08-19T00:38:42;7.70;;;1.80;;
38787;SDS011;24536;45.488;12.238;2022-08-19T00:41:09;6.85;;;1.90;;
38787;SDS011;24536;45.488;12.238;2022-08-19T00:43:37;10.43;;;2.80;;
38787;SDS011;24536;45.488;12.238;2022-08-19T00:46:03;7.68;;;2.53;;
38787;SDS011;24536;45.488;12.238;2022-08-19T00:48:30;6.97;;;2.20;;
38787;SDS011;24536;45.488;12.238;2022-08-19T00:50:56;5.50;;;2.03;;
38787;SDS011;24536;45.488;12.238;2022-08-19T00:53:24;5.22;;;1.83;;
38787;SDS011;24536;45.488;12.238;2022-08-19T00:55:53;8.60;;;1.97;;
38787;SDS011;24536;45.488;12.238;2022-08-19T00:58:24;3.22;;;1.40;;
38787;SDS011;24536;45.488;12.238;2022-08-19T01:00:54;5.38;;;1.70;;
38787;SDS011;24536;45.488;12.238;2022-08-19T01:03:20;3.58;;;1.58;;
38787;SDS011;24536;45.488;12.238;2022-08-19T01:05:47;6.38;;;2.10;;
38787;SDS011;24536;45.488;12.238;2022-08-19T01:08:15;6.85;;;2.60;;
38787;SDS011;24536;45.488;12.238;2022-08-19T01:10:43;9.82;;;2.08;;
38787;SDS011;24536;45.488;12.238;2022-08-19T01:13:13;5.30;;;1.67;;
38787;SDS011;24536;45.488;12.238;2022-08-19T01:15:45;7.30;;;2.15;;
38787;SDS011;24536;45.488;12.238;2022-08-19T01:18:15;7.05;;;1.90;;
38787;SDS011;24536;45.488;12.238;2022-08-19T01:20:42;7.45;;;2.08;;
38787;SDS011;24536;45.488;12.238;2022-08-19T01:23:09;3.25;;;1.48;;
38787;SDS011;24536;45.488;12.238;2022-08-19T01:25:39;4.50;;;1.63;;
38787;SDS011;24536;45.488;12.238;2022-08-19T01:28:15;9.88;;;2.22;;
38787;SDS011;24536;45.488;12.238;2022-08-19T01:30:43;5.75;;;1.80;;
38787;SDS011;24536;45.488;12.238;2022-08-19T01:33:09;4.88;;;1.42;;
38787;SDS011;24536;45.488;12.238;2022-08-19T01:35:35;4.50;;;1.77;;
38787;SDS011;24536;45.488;12.238;2022-08-19T01:38:03;6.68;;;1.70;;
38787;SDS011;24536;45.488;12.238;2022-08-19T01:40:36;5.65;;;1.40;;
38787;SDS011;24536;45.488;12.238;2022-08-19T01:43:04;6.90;;;1.95;;
38787;SDS011;24536;45.488;12.238;2022-08-19T01:45:31;7.28;;;1.75;;
38787;SDS011;24536;45.488;12.238;2022-08-19T01:47:58;7.40;;;2.10;;
38787;SDS011;24536;45.488;12.238;2022-08-19T01:50:25;10.80;;;2.35;;
38787;SDS011;24536;45.488;12.238;2022-08-19T01:52:51;7.30;;;1.90;;
38787;SDS011;24536;45.488;12.238;2022-08-19T01:55:19;5.30;;;1.38;;
38787;SDS011;24536;45.488;12.238;2022-08-19T01:57:50;7.03;;;2.00;;
38787;SDS011;24536;45.488;12.238;2022-08-19T02:00:20;7.32;;;1.98;;
38787;SDS011;24536;45.488;12.238;2022-08-19T02:02:47;17.13;;;2.90;;
38787;SDS011;24536;45.488;12.238;2022-08-19T02:05:13;9.10;;;1.90;;
38787;SDS011;24536;45.488;12.238;2022-08-19T02:07:39;9.45;;;2.47;;
38787;SDS011;24536;45.488;12.238;2022-08-19T02:10:07;10.90;;;2.60;;
38787;SDS011;24536;45.488;12.238;2022-08-19T02:12:42;7.13;;;1.67;;
38787;SDS011;24536;45.488;12.238;2022-08-19T02:15:08;7.32;;;2.03;;
38787;SDS011;24536;45.488;12.238;2022-08-19T02:17:34;9.07;;;2.05;;
38787;SDS011;24536;45.488;12.238;2022-08-19T02:20:00;11.10;;;2.13;;
38787;SDS011;24536;45.488;12.238;2022-08-19T02:22:26;8.52;;;1.70;;
38787;SDS011;24536;45.488;12.238;2022-08-19T02:24:52;12.45;;;2.22;;
38787;SDS011;24536;45.488;12.238;2022-08-19T02:27:19;9.57;;;2.03;;
38787;SDS011;24536;45.488;12.238;2022-08-19T02:29:46;7.72;;;2.00;;
38787;SDS011;24536;45.488;12.238;2022-08-19T02:32:12;3.95;;;1.50;;
38787;SDS011;24536;45.488;12.238;2022-08-19T02:34:38;7.32;;;1.58;;
38787;SDS011;24536;45.488;12.238;2022-08-19T02:37:04;12.18;;;1.80;;
38787;SDS011;24536;45.488;12.238;2022-08-19T02:39:30;6.65;;;1.85;;
38787;SDS011;24536;45.488;12.238;2022-08-19T02:41:56;8.32;;;2.10;;
38787;SDS011;24536;45.488;12.238;2022-08-19T02:44:24;9.82;;;2.08;;
38787;SDS011;24536;45.488;12.238;2022-08-19T02:46:50;9.07;;;1.90;;
38787;SDS011;24536;45.488;12.238;2022-08-19T02:49:15;8.73;;;1.77;;
38787;SDS011;24536;45.488;12.238;2022-08-19T02:51:42;9.60;;;1.65;;
38787;SDS011;24536;45.488;12.238;2022-08-19T02:54:10;2.72;;;0.80;;
38787;SDS011;24536;45.488;12.238;2022-08-19T02:56:37;10.10;;;2.17;;
38787;SDS011;24536;45.488;12.238;2022-08-19T02:59:05;3.22;;;1.30;;
38787;SDS011;24536;45.488;12.238;2022-08-19T03:01:35;5.95;;;1.42;;
38787;SDS011;24536;45.488;12.238;2022-08-19T03:04:02;9.85;;;1.88;;
38787;SDS011;24536;45.488;12.238;2022-08-19T03:06:30;7.07;;;1.90;;
38787;SDS011;24536;45.488;12.238;2022-08-19T03:08:56;6.97;;;1.45;;
38787;SDS011;24536;45.488;12.238;2022-08-19T03:11:24;4.80;;;1.05;;
38787;SDS011;24536;45.488;12.238;2022-08-19T03:13:51;4.32;;;1.00;;
38787;SDS011;24536;45.488;12.238;2022-08-19T03:16:18;4.03;;;1.33;;
38787;SDS011;24536;45.488;12.238;2022-08-19T03:18:45;2.08;;;0.73;;
38787;SDS011;24536;45.488;12.238;2022-08-19T03:21:21;5.82;;;1.05;;
38787;SDS011;24536;45.488;12.238;2022-08-19T03:23:49;3.97;;;0.98;;
38787;SDS011;24536;45.488;12.238;2022-08-19T03:26:18;5.50;;;1.07;;
38787;SDS011;24536;45.488;12.238;2022-08-19T03:28:44;3.63;;;1.35;;
38787;SDS011;24536;45.488;12.238;2022-08-19T03:31:15;3.70;;;0.90;;
38787;SDS011;24536;45.488;12.238;2022-08-19T03:33:43;2.10;;;0.90;;
38787;SDS011;24536;45.488;12.238;2022-08-19T03:36:14;2.75;;;1.20;;
38787;SDS011;24536;45.488;12.238;2022-08-19T03:38:43;4.05;;;1.17;;
38787;SDS011;24536;45.488;12.238;2022-08-19T03:41:12;4.43;;;0.80;;
38787;SDS011;24536;45.488;12.238;2022-08-19T03:43:40;2.50;;;0.88;;
38787;SDS011;24536;45.488;12.238;2022-08-19T03:46:08;1.75;;;0.60;;
38787;SDS011;24536;45.488;12.238;2022-08-19T03:48:36;5.95;;;1.38;;
38787;SDS011;24536;45.488;12.238;2022-08-19T03:51:03;4.68;;;1.10;;
38787;SDS011;24536;45.488;12.238;2022-08-19T03:53:30;3.75;;;1.30;;
38787;SDS011;24536;45.488;12.238;2022-08-19T03:55:57;5.47;;;1.30;;
38787;SDS011;24536;45.488;12.238;2022-08-19T03:58:25;5.03;;;1.33;;
38787;SDS011;24536;45.488;12.238;2022-08-19T04:00:53;4.65;;;1.48;;
38787;SDS011;24536;45.488;12.238;2022-08-19T04:03:26;4.50;;;1.08;;
38787;SDS011;24536;45.488;12.238;2022-08-19T04:05:52;4.22;;;0.98;;
38787;SDS011;24536;45.488;12.238;2022-08-19T04:08:18;3.17;;;1.25;;
38787;SDS011;24536;45.488;12.238;2022-08-19T04:10:47;2.92;;;0.95;;
38787;SDS011;24536;45.488;12.238;2022-08-19T04:13:14;7.18;;;1.40;;
38787;SDS011;24536;45.488;12.238;2022-08-19T04:15:42;7.57;;;1.08;;
38787;SDS011;24536;45.488;12.238;2022-08-19T04:18:09;1.52;;;0.75;;
38787;SDS011;24536;45.488;12.238;2022-08-19T04:20:54;3.85;;;0.90;;
38787;SDS011;24536;45.488;12.238;2022-08-19T04:23:19;2.97;;;1.00;;
38787;SDS011;24536;45.488;12.238;2022-08-19T04:25:45;5.82;;;1.20;;
38787;SDS011;24536;45.488;12.238;2022-08-19T04:28:11;5.25;;;1.10;;
38787;SDS011;24536;45.488;12.238;2022-08-19T04:30:44;2.50;;;1.10;;
38787;SDS011;24536;45.488;12.238;2022-08-19T04:33:12;4.13;;;1.00;;
38787;SDS011;24536;45.488;12.238;2022-08-19T04:35:42;3.28;;;1.10;;
38787;SDS011;24536;45.488;12.238;2022-08-19T04:38:10;4.72;;;1.20;;
38787;SDS011;24536;45.488;12.238;2022-08-19T04:40:40;7.32;;;1.65;;
38787;SDS011;24536;45.488;12.238;2022-08-19T04:43:25;3.05;;;0.98;;
38787;SDS011;24536;45.488;12.238;2022-08-19T04:45:51;6.60;;;1.17;;
38787;SDS011;24536;45.488;12.238;2022-08-19T04:48:17;3.83;;;1.50;;
38787;SDS011;24536;45.488;12.238;2022-08-19T04:50:50;3.50;;;1.17;;
38787;SDS011;24536;45.488;12.238;2022-08-19T04:53:22;3.67;;;0.90;;
38787;SDS011;24536;45.488;12.238;2022-08-19T04:55:58;7.20;;;1.92;;
38787;SDS011;24536;45.488;12.238;2022-08-19T04:58:26;5.00;;;1.30;;
38787;SDS011;24536;45.488;12.238;2022-08-19T05:00:53;4.93;;;1.45;;
38787;SDS011;24536;45.488;12.238;2022-08-19T05:03:19;3.47;;;1.23;;
38787;SDS011;24536;45.488;12.238;2022-08-19T05:05:45;7.60;;;1.52;;
38787;SDS011;24536;45.488;12.238;2022-08-19T05:08:16;6.78;;;1.17;;
38787;SDS011;24536;45.488;12.238;2022-08-19T05:10:45;5.43;;;1.55;;
38787;SDS011;24536;45.488;12.238;2022-08-19T05:13:15;5.25;;;1.30;;
38787;SDS011;24536;45.488;12.238;2022-08-19T05:15:43;6.38;;;1.10;;
38787;SDS011;24536;45.488;12.238;2022-08-19T05:18:09;2.22;;;1.10;;
38787;SDS011;24536;45.488;12.238;2022-08-19T05:20:54;3.08;;;1.13;;
38787;SDS011;24536;45.488;12.238;2022-08-19T05:23:38;3.53;;;1.52;;
38787;SDS011;24536;45.488;12.238;2022-08-19T05:26:04;2.85;;;1.17;;
38787;SDS011;24536;45.488;12.238;2022-08-19T05:28:30;3.10;;;1.20;;
38787;SDS011;24536;45.488;12.238;2022-08-19T05:30:56;3.50;;;1.33;;
38787;SDS011;24536;45.488;12.238;2022-08-19T05:33:22;3.65;;;1.15;;
38787;SDS011;24536;45.488;12.238;2022-08-19T05:35:49;3.17;;;1.05;;
38787;SDS011;24536;45.488;12.238;2022-08-19T05:38:18;3.08;;;1.23;;
38787;SDS011;24536;45.488;12.238;2022-08-19T05:40:44;6.85;;;1.77;;
38787;SDS011;24536;45.488;12.238;2022-08-19T05:43:12;7.75;;;1.60;;
38787;SDS011;24536;45.488;12.238;2022-08-19T05:45:42;1.98;;;0.82;;
38787;SDS011;24536;45.488;12.238;2022-08-19T05:48:12;7.57;;;1.33;;
38787;SDS011;24536;45.488;12.238;2022-08-19T05:50:39;5.60;;;1.30;;
38787;SDS011;24536;45.488;12.238;2022-08-19T05:53:06;5.05;;;1.50;;
38787;SDS011;24536;45.488;12.238;2022-08-19T05:55:34;6.07;;;1.30;;
38787;SDS011;24536;45.488;12.238;2022-08-19T05:57:59;5.88;;;1.63;;
38787;SDS011;24536;45.488;12.238;2022-08-19T06:00:27;7.07;;;1.55;;
38787;SDS011;24536;45.488;12.238;2022-08-19T06:02:55;3.55;;;1.15;;
38787;SDS011;24536;45.488;12.238;2022-08-19T06:05:21;6.20;;;1.38;;
38787;SDS011;24536;45.488;12.238;2022-08-19T06:07:47;4.63;;;1.33;;
38787;SDS011;24536;45.488;12.238;2022-08-19T06:10:13;3.33;;;1.00;;
38787;SDS011;24536;45.488;12.238;2022-08-19T06:12:38;5.78;;;1.20;;
38787;SDS011;24536;45.488;12.238;2022-08-19T06:15:06;7.05;;;1.30;;
38787;SDS011;24536;45.488;12.238;2022-08-19T06:17:37;4.43;;;1.40;;
38787;SDS011;24536;45.488;12.238;2022-08-19T06:20:04;2.72;;;1.20;;
38787;SDS011;24536;45.488;12.238;2022-08-19T06:22:35;6.70;;;1.20;;
38787;SDS011;24536;45.488;12.238;2022-08-19T06:25:03;2.88;;;1.00;;
38787;SDS011;24536;45.488;12.238;2022-08-19T06:27:29;5.18;;;1.30;;
38787;SDS011;24536;45.488;12.238;2022-08-19T06:29:56;6.82;;;1.58;;
38787;SDS011;24536;45.488;12.238;2022-08-19T06:32:22;5.82;;;1.30;;
38787;SDS011;24536;45.488;12.238;2022-08-19T06:34:48;4.97;;;1.10;;
38787;SDS011;24536;45.488;12.238;2022-08-19T06:37:14;2.53;;;1.13;;
38787;SDS011;24536;45.488;12.238;2022-08-19T06:39:41;3.22;;;0.80;;
38787;SDS011;24536;45.488;12.238;2022-08-19T06:42:10;6.65;;;1.40;;
38787;SDS011;24536;45.488;12.238;2022-08-19T06:44:39;4.82;;;1.10;;
38787;SDS011;24536;45.488;12.238;2022-08-19T06:47:06;4.93;;;1.02;;
38787;SDS011;24536;45.488;12.238;2022-08-19T06:49:34;6.88;;;1.63;;
38787;SDS011;24536;45.488;12.238;2022-08-19T06:52:01;1.80;;;0.60;;
38787;SDS011;24536;45.488;12.238;2022-08-19T06:54:27;3.28;;;1.00;;
38787;SDS011;24536;45.488;12.238;2022-08-19T06:56:57;3.40;;;1.15;;
38787;SDS011;24536;45.488;12.238;2022-08-19T06:59:27;3.15;;;0.93;;
38787;SDS011;24536;45.488;12.238;2022-08-19T07:01:57;7.47;;;1.23;;
38787;SDS011;24536;45.488;12.238;2022-08-19T07:04:26;3.80;;;1.27;;
38787;SDS011;24536;45.488;12.238;2022-08-19T07:06:57;2.13;;;1.05;;
38787;SDS011;24536;45.488;12.238;2022-08-19T07:09:31;2.60;;;1.00;;
38787;SDS011;24536;45.488;12.238;2022-08-19T07:11:56;4.85;;;1.23;;
38787;SDS011;24536;45.488;12.238;2022-08-19T07:14:23;5.10;;;1.30;;
38787;SDS011;24536;45.488;12.238;2022-08-19T07:16:52;2.58;;;1.10;;
38787;SDS011;24536;45.488;12.238;2022-08-19T07:19:20;4.50;;;0.90;;
38787;SDS011;24536;45.488;12.238;2022-08-19T07:21:47;3.85;;;1.08;;
38787;SDS011;24536;45.488;12.238;2022-08-19T07:24:16;7.88;;;1.02;;
38787;SDS011;24536;45.488;12.238;2022-08-19T07:26:42;1.63;;;0.80;;
38787;SDS011;24536;45.488;12.238;2022-08-19T07:29:09;1.75;;;0.80;;
38787;SDS011;24536;45.488;12.238;2022-08-19T07:31:36;1.67;;;0.50;;
38787;SDS011;24536;45.488;12.238;2022-08-19T07:34:06;12.05;;;1.30;;
38787;SDS011;24536;45.488;12.238;2022-08-19T07:36:35;2.13;;;0.90;;
38787;SDS011;24536;45.488;12.238;2022-08-19T07:39:04;3.60;;;0.68;;
38787;SDS011;24536;45.488;12.238;2022-08-19T07:41:34;2.58;;;0.80;;
38787;SDS011;24536;45.488;12.238;2022-08-19T07:44:02;1.70;;;0.75;;
38787;SDS011;24536;45.488;12.238;2022-08-19T07:46:30;111.32;;;99.47;;
38787;SDS011;24536;45.488;12.238;2022-08-19T07:49:00;135.25;;;115.10;;
38787;SDS011;24536;45.488;12.238;2022-08-19T07:51:26;99.72;;;88.78;;
38787;SDS011;24536;45.488;12.238;2022-08-19T07:53:53;118.13;;;96.68;;
38787;SDS011;24536;45.488;12.238;2022-08-19T07:56:25;26.38;;;22.02;;
38787;SDS011;24536;45.488;12.238;2022-08-19T07:58:51;7.43;;;5.78;;
38787;SDS011;24536;45.488;12.238;2022-08-19T08:01:20;4.60;;;2.00;;
38787;SDS011;24536;45.488;12.238;2022-08-19T08:03:50;2.38;;;1.25;;
38787;SDS011;24536;45.488;12.238;2022-08-19T08:06:36;3.17;;;1.02;;
38787;SDS011;24536;45.488;12.238;2022-08-19T08:09:23;2.53;;;0.60;;
38787;SDS011;24536;45.488;12.238;2022-08-19T08:11:56;5.07;;;1.00;;
38787;SDS011;24536;45.488;12.238;2022-08-19T08:14:26;2.28;;;0.70;;
38787;SDS011;24536;45.488;12.238;2022-08-19T08:16:55;4.55;;;1.30;;
38787;SDS011;24536;45.488;12.238;2022-08-19T08:19:22;3.97;;;1.00;;
38787;SDS011;24536;45.488;12.238;2022-08-19T08:21:50;1.92;;;0.60;;
38787;SDS011;24536;45.488;12.238;2022-08-19T08:24:17;3.15;;;0.65;;
38787;SDS011;24536;45.488;12.238;2022-08-19T08:26:46;1.45;;;0.80;;
38787;SDS011;24536;45.488;12.238;2022-08-19T08:29:12;3.00;;;0.90;;
38787;SDS011;24536;45.488;12.238;2022-08-19T08:31:41;1.60;;;0.90;;
38787;SDS011;24536;45.488;12.238;2022-08-19T08:34:09;2.42;;;0.60;;
38787;SDS011;24536;45.488;12.238;2022-08-19T08:36:37;2.10;;;0.63;;
38787;SDS011;24536;45.488;12.238;2022-08-19T08:39:11;3.28;;;0.90;;
38787;SDS011;24536;45.488;12.238;2022-08-19T08:44:28;9.05;;;0.82;;
38787;SDS011;24536;45.488;12.238;2022-08-19T08:47:06;4.78;;;1.10;;
38787;SDS011;24536;45.488;12.238;2022-08-19T08:52:18;2.53;;;0.88;;
38787;SDS011;24536;45.488;12.238;2022-08-19T08:54:53;8.02;;;0.80;;
38787;SDS011;24536;45.488;12.238;2022-08-19T09:00:00;1.65;;;1.00;;
38787;SDS011;24536;45.488;12.238;2022-08-19T09:02:31;3.40;;;1.10;;
38787;SDS011;24536;45.488;12.238;2022-08-19T09:04:57;1.98;;;0.70;;
38787;SDS011;24536;45.488;12.238;2022-08-19T09:07:33;2.92;;;0.85;;
38787;SDS011;24536;45.488;12.238;2022-08-19T09:10:16;2.00;;;0.68;;
38787;SDS011;24536;45.488;12.238;2022-08-19T09:15:28;2.30;;;0.68;;
38787;SDS011;24536;45.488;12.238;2022-08-19T09:18:00;1.02;;;0.35;;
38787;SDS011;24536;45.488;12.238;2022-08-19T09:20:27;1.98;;;0.60;;
38787;SDS011;24536;45.488;12.238;2022-08-19T09:22:57;3.13;;;0.50;;
38787;SDS011;24536;45.488;12.238;2022-08-19T09:25:25;0.40;;;0.38;;
38787;SDS011;24536;45.488;12.238;2022-08-19T09:27:51;0.98;;;0.40;;
38787;SDS011;24536;45.488;12.238;2022-08-19T09:30:19;1.60;;;0.47;;
38787;SDS011;24536;45.488;12.238;2022-08-19T09:32:47;3.10;;;0.38;;
38787;SDS011;24536;45.488;12.238;2022-08-19T09:35:13;0.40;;;0.35;;
38787;SDS011;24536;45.488;12.238;2022-08-19T09:37:41;1.05;;;0.30;;
38787;SDS011;24536;45.488;12.238;2022-08-19T09:40:08;0.20;;;0.20;;
38787;SDS011;24536;45.488;12.238;2022-08-19T09:42:34;0.50;;;0.30;;
38787;SDS011;24536;45.488;12.238;2022-08-19T09:45:00;0.93;;;0.40;;
38787;SDS011;24536;45.488;12.238;2022-08-19T09:47:27;0.68;;;0.38;;
38787;SDS011;24536;45.488;12.238;2022-08-19T09:49:53;0.90;;;0.52;;
38787;SDS011;24536;45.488;12.238;2022-08-19T09:52:19;1.02;;;0.43;;
38787;SDS011;24536;45.488;12.238;2022-08-19T09:54:45;1.40;;;0.52;;
38787;SDS011;24536;45.488;12.238;2022-08-19T09:57:11;0.93;;;0.47;;
38787;SDS011;24536;45.488;12.238;2022-08-19T09:59:38;0.75;;;0.32;;
38787;SDS011;24536;45.488;12.238;2022-08-19T10:02:04;0.38;;;0.30;;
38787;SDS011;24536;45.488;12.238;2022-08-19T10:04:29;1.65;;;0.40;;
38787;SDS011;24536;45.488;12.238;2022-08-19T10:07:14;1.17;;;0.30;;
38787;SDS011;24536;45.488;12.238;2022-08-19T10:09:40;1.38;;;0.30;;
38787;SDS011;24536;45.488;12.238;2022-08-19T10:12:06;1.85;;;0.30;;
38787;SDS011;24536;45.488;12.238;2022-08-19T10:14:33;1.40;;;0.30;;
38787;SDS011;24536;45.488;12.238;2022-08-19T10:16:59;4.53;;;0.40;;
38787;SDS011;24536;45.488;12.238;2022-08-19T10:19:27;0.80;;;0.43;;
38787;SDS011;24536;45.488;12.238;2022-08-19T10:21:55;1.15;;;0.70;;
38787;SDS011;24536;45.488;12.238;2022-08-19T10:24:21;1.08;;;0.32;;
38787;SDS011;24536;45.488;12.238;2022-08-19T10:26:49;1.23;;;0.45;;
38787;SDS011;24536;45.488;12.238;2022-08-19T10:29:14;2.17;;;0.82;;
38787;SDS011;24536;45.488;12.238;2022-08-19T10:31:41;1.48;;;0.60;;
38787;SDS011;24536;45.488;12.238;2022-08-19T10:34:07;2.05;;;0.50;;
38787;SDS011;24536;45.488;12.238;2022-08-19T10:36:35;0.85;;;0.40;;
38787;SDS011;24536;45.488;12.238;2022-08-19T10:39:04;2.60;;;0.47;;
38787;SDS011;24536;45.488;12.238;2022-08-19T10:41:35;1.90;;;0.50;;
38787;SDS011;24536;45.488;12.238;2022-08-19T10:44:04;2.15;;;0.70;;
38787;SDS011;24536;45.488;12.238;2022-08-19T10:46:32;2.08;;;0.60;;
38787;SDS011;24536;45.488;12.238;2022-08-19T10:49:02;1.40;;;0.47;;
38787;SDS011;24536;45.488;12.238;2022-08-19T10:51:29;1.05;;;0.55;;
38787;SDS011;24536;45.488;12.238;2022-08-19T10:54:27;1.20;;;0.52;;
38787;SDS011;24536;45.488;12.238;2022-08-19T10:57:14;156.18;;;140.25;;
38787;SDS011;24536;45.488;12.238;2022-08-19T10:59:41;278.75;;;249.68;;
38787;SDS011;24536;45.488;12.238;2022-08-19T11:02:08;137.68;;;123.68;;
38787;SDS011;24536;45.488;12.238;2022-08-19T11:04:36;17.73;;;15.02;;
38787;SDS011;24536;45.488;12.238;2022-08-19T11:07:03;4.57;;;3.47;;
38787;SDS011;24536;45.488;12.238;2022-08-19T11:09:29;1.83;;;1.00;;
38787;SDS011;24536;45.488;12.238;2022-08-19T11:11:56;1.17;;;0.60;;
38787;SDS011;24536;45.488;12.238;2022-08-19T11:14:22;1.65;;;0.85;;
38787;SDS011;24536;45.488;12.238;2022-08-19T11:16:51;2.35;;;0.60;;
38787;SDS011;24536;45.488;12.238;2022-08-19T11:19:21;0.50;;;0.43;;
38787;SDS011;24536;45.488;12.238;2022-08-19T11:21:48;0.90;;;0.50;;
38787;SDS011;24536;45.488;12.238;2022-08-19T11:24:19;1.48;;;0.80;;
38787;SDS011;24536;45.488;12.238;2022-08-19T11:26:47;1.88;;;0.60;;
38787;SDS011;24536;45.488;12.238;2022-08-19T11:29:15;1.80;;;0.52;;
38787;SDS011;24536;45.488;12.238;2022-08-19T11:31:44;3.08;;;0.80;;
38787;SDS011;24536;45.488;12.238;2022-08-19T11:34:12;1.23;;;0.65;;
38787;SDS011;24536;45.488;12.238;2022-08-19T11:36:41;2.80;;;0.60;;
38787;SDS011;24536;45.488;12.238;2022-08-19T11:39:10;0.50;;;0.47;;
38787;SDS011;24536;45.488;12.238;2022-08-19T11:41:38;0.88;;;0.50;;
38787;SDS011;24536;45.488;12.238;2022-08-19T11:44:05;8.07;;;0.93;;
38787;SDS011;24536;45.488;12.238;2022-08-19T11:46:33;0.85;;;0.60;;
38787;SDS011;24536;45.488;12.238;2022-08-19T11:48:59;2.15;;;0.70;;
38787;SDS011;24536;45.488;12.238;2022-08-19T11:51:26;1.67;;;0.82;;
38787;SDS011;24536;45.488;12.238;2022-08-19T11:53:53;6.38;;;0.82;;
38787;SDS011;24536;45.488;12.238;2022-08-19T11:56:21;1.88;;;0.57;;
38787;SDS011;24536;45.488;12.238;2022-08-19T11:58:47;3.33;;;0.80;;
38787;SDS011;24536;45.488;12.238;2022-08-19T12:01:14;3.13;;;0.73;;
38787;SDS011;24536;45.488;12.238;2022-08-19T12:03:42;1.15;;;0.47;;
38787;SDS011;24536;45.488;12.238;2022-08-19T12:06:10;7.43;;;2.25;;
38787;SDS011;24536;45.488;12.238;2022-08-19T12:08:39;2.72;;;0.93;;
38787;SDS011;24536;45.488;12.238;2022-08-19T12:11:09;9.32;;;1.13;;
38787;SDS011;24536;45.488;12.238;2022-08-19T12:13:36;0.82;;;0.38;;
38787;SDS011;24536;45.488;12.238;2022-08-19T12:16:10;0.75;;;0.30;;
38787;SDS011;24536;45.488;12.238;2022-08-19T12:18:40;0.98;;;0.30;;
38787;SDS011;24536;45.488;12.238;2022-08-19T12:21:08;1.40;;;0.25;;
38787;SDS011;24536;45.488;12.238;2022-08-19T12:23:36;2.15;;;0.50;;
38787;SDS011;24536;45.488;12.238;2022-08-19T12:26:02;0.57;;;0.32;;
38787;SDS011;24536;45.488;12.238;2022-08-19T12:28:28;0.70;;;0.30;;
38787;SDS011;24536;45.488;12.238;2022-08-19T12:30:55;0.30;;;0.13;;
38787;SDS011;24536;45.488;12.238;2022-08-19T12:33:21;0.68;;;0.30;;
38787;SDS011;24536;45.488;12.238;2022-08-19T12:35:50;1.23;;;0.50;;
38787;SDS011;24536;45.488;12.238;2022-08-19T12:38:16;1.77;;;0.40;;
38787;SDS011;24536;45.488;12.238;2022-08-19T12:40:45;1.25;;;0.40;;
38787;SDS011;24536;45.488;12.238;2022-08-19T12:43:11;1.30;;;0.60;;
38787;SDS011;24536;45.488;12.238;2022-08-19T12:45:37;0.32;;;0.25;;
38787;SDS011;24536;45.488;12.238;2022-08-19T12:48:04;0.30;;;0.20;;
38787;SDS011;24536;45.488;12.238;2022-08-19T12:50:30;1.40;;;0.30;;
38787;SDS011;24536;45.488;12.238;2022-08-19T12:52:56;1.48;;;0.50;;
38787;SDS011;24536;45.488;12.238;2022-08-19T12:55:23;2.75;;;0.47;;
38787;SDS011;24536;45.488;12.238;2022-08-19T12:57:50;0.63;;;0.32;;
38787;SDS011;24536;45.488;12.238;2022-08-19T13:00:17;1.30;;;0.40;;
38787;SDS011;24536;45.488;12.238;2022-08-19T13:05:15;0.15;;;0.15;;
38787;SDS011;24536;45.488;12.238;2022-08-19T13:07:44;0.90;;;0.40;;
38787;SDS011;24536;45.488;12.238;2022-08-19T13:10:12;0.98;;;0.47;;
38787;SDS011;24536;45.488;12.238;2022-08-19T13:12:40;1.85;;;0.43;;
38787;SDS011;24536;45.488;12.238;2022-08-19T13:15:07;2.17;;;0.60;;
38787;SDS011;24536;45.488;12.238;2022-08-19T13:17:34;1.52;;;0.60;;
38787;SDS011;24536;45.488;12.238;2022-08-19T13:20:00;0.68;;;0.30;;
38787;SDS011;24536;45.488;12.238;2022-08-19T13:22:26;1.23;;;0.40;;
38787;SDS011;24536;45.488;12.238;2022-08-19T13:24:52;0.85;;;0.35;;
38787;SDS011;24536;45.488;12.238;2022-08-19T13:27:18;1.85;;;0.60;;
38787;SDS011;24536;45.488;12.238;2022-08-19T13:29:43;2.20;;;0.50;;
38787;SDS011;24536;45.488;12.238;2022-08-19T13:32:31;1.77;;;0.63;;
38787;SDS011;24536;45.488;12.238;2022-08-19T13:35:15;2.42;;;0.30;;
38787;SDS011;24536;45.488;12.238;2022-08-19T13:37:41;1.67;;;0.50;;
38787;SDS011;24536;45.488;12.238;2022-08-19T13:40:15;1.77;;;0.60;;
38787;SDS011;24536;45.488;12.238;2022-08-19T13:42:49;1.25;;;0.50;;
38787;SDS011;24536;45.488;12.238;2022-08-19T13:45:19;1.05;;;0.60;;
38787;SDS011;24536;45.488;12.238;2022-08-19T13:47:47;1.95;;;0.47;;
38787;SDS011;24536;45.488;12.238;2022-08-19T13:50:15;2.78;;;0.68;;
38787;SDS011;24536;45.488;12.238;2022-08-19T13:52:43;1.10;;;0.55;;
38787;SDS011;24536;45.488;12.238;2022-08-19T13:55:09;1.08;;;0.50;;
38787;SDS011;24536;45.488;12.238;2022-08-19T13:57:36;1.23;;;0.30;;
38787;SDS011;24536;45.488;12.238;2022-08-19T14:00:06;1.88;;;0.60;;
38787;SDS011;24536;45.488;12.238;2022-08-19T14:02:35;3.00;;;0.50;;
38787;SDS011;24536;45.488;12.238;2022-08-19T14:05:03;0.88;;;0.40;;
38787;SDS011;24536;45.488;12.238;2022-08-19T14:07:30;1.95;;;0.63;;
38787;SDS011;24536;45.488;12.238;2022-08-19T14:09:56;0.73;;;0.50;;
38787;SDS011;24536;45.488;12.238;2022-08-19T14:12:22;1.33;;;0.70;;
38787;SDS011;24536;45.488;12.238;2022-08-19T14:14:48;2.72;;;0.70;;
38787;SDS011;24536;45.488;12.238;2022-08-19T14:17:14;1.55;;;0.68;;
38787;SDS011;24536;45.488;12.238;2022-08-19T14:19:40;1.40;;;0.50;;
38787;SDS011;24536;45.488;12.238;2022-08-19T14:22:06;1.38;;;0.47;;
38787;SDS011;24536;45.488;12.238;2022-08-19T14:24:32;2.83;;;0.70;;
38787;SDS011;24536;45.488;12.238;2022-08-19T14:26:58;1.10;;;0.52;;
38787;SDS011;24536;45.488;12.238;2022-08-19T14:29:24;1.73;;;0.40;;
38787;SDS011;24536;45.488;12.238;2022-08-19T14:31:52;0.73;;;0.47;;
38787;SDS011;24536;45.488;12.238;2022-08-19T14:34:18;3.05;;;0.60;;
38787;SDS011;24536;45.488;12.238;2022-08-19T14:36:43;1.98;;;0.68;;
38787;SDS011;24536;45.488;12.238;2022-08-19T14:39:10;2.05;;;0.50;;
38787;SDS011;24536;45.488;12.238;2022-08-19T14:41:36;0.80;;;0.45;;
38787;SDS011;24536;45.488;12.238;2022-08-19T14:44:07;2.05;;;0.60;;
38787;SDS011;24536;45.488;12.238;2022-08-19T14:46:35;1.92;;;0.68;;
38787;SDS011;24536;45.488;12.238;2022-08-19T14:49:00;1.33;;;0.50;;
38787;SDS011;24536;45.488;12.238;2022-08-19T14:51:27;2.70;;;0.80;;
38787;SDS011;24536;45.488;12.238;2022-08-19T14:53:53;0.70;;;0.43;;